Time;durP1;ratioP1;P1;durP2;ratioP2;P2;SDS_P1;SDS_P2;PMS_P1;PMS_P2;Temp;Humidity;BMP_temperature;BMP_pressure;BME280_temperature;BME280_humidity;BME280_pressure;Samples;Min_cycle;Max_cycle;Signal;HPM_P1;HPM_P2
2023/07/24 00:02:23;;;;;;;7.57;4.18;;;;;;;20.60;100.00;99259.47;5074324;28;20349;-63
2023/07/24 00:04:48;;;;;;;8.73;4.38;;;;;;;20.62;100.00;99260.22;5090396;28;20120;-63
2023/07/24 00:07:14;;;;;;;9.05;4.97;;;;;;;20.63;100.00;99264.63;5090260;28;20043;-63
2023/07/24 00:09:39;;;;;;;9.38;4.30;;;;;;;20.57;100.00;99266.03;5089595;28;20039;-62
2023/07/24 00:12:05;;;;;;;10.00;4.80;;;;;;;20.61;100.00;99262.06;5089965;28;20028;-62
2023/07/24 00:14:30;;;;;;;12.77;4.95;;;;;;;20.61;100.00;99264.75;5089881;28;20127;-63
2023/07/24 00:16:56;;;;;;;9.15;4.28;;;;;;;20.64;100.00;99259.09;5089861;28;20093;-63
2023/07/24 00:19:21;;;;;;;8.93;4.25;;;;;;;20.67;100.00;99252.56;5078972;28;20028;-63
2023/07/24 00:21:46;;;;;;;11.88;4.90;;;;;;;20.66;100.00;99259.81;5069124;28;20040;-63
2023/07/24 00:24:12;;;;;;;8.90;3.72;;;;;;;20.65;100.00;99250.00;5079791;28;20036;-62
2023/07/24 00:26:37;;;;;;;8.27;4.25;;;;;;;20.54;100.00;99252.75;5088041;28;20023;-62
2023/07/24 00:29:03;;;;;;;9.18;4.47;;;;;;;20.45;100.00;99253.53;5087396;28;20115;-62
2023/07/24 00:31:28;;;;;;;8.18;3.85;;;;;;;20.34;100.00;99250.91;5087598;28;20081;-62
2023/07/24 00:33:53;;;;;;;9.98;4.70;;;;;;;20.24;100.00;99249.97;5086865;28;20023;-62
2023/07/24 00:36:19;;;;;;;8.85;4.13;;;;;;;20.14;100.00;99248.97;5087367;28;20028;-62
2023/07/24 00:38:44;;;;;;;11.13;4.70;;;;;;;20.08;100.00;99244.06;5086830;28;20020;-62
2023/07/24 00:41:09;;;;;;;8.93;4.30;;;;;;;20.02;100.00;99241.91;5088417;28;20130;-62
2023/07/24 00:43:35;;;;;;;10.43;4.60;;;;;;;19.93;100.00;99234.56;5089190;28;20728;-62
2023/07/24 00:46:02;;;;;;;10.57;4.65;;;;;;;19.90;100.00;99232.09;5088775;28;20078;-62
2023/07/24 00:48:28;;;;;;;11.07;4.55;;;;;;;19.86;100.00;99225.25;5089182;28;20082;-62
2023/07/24 00:50:53;;;;;;;9.30;4.00;;;;;;;19.84;100.00;99229.94;5089497;28;20019;-62
2023/07/24 00:53:19;;;;;;;8.60;4.45;;;;;;;19.84;100.00;99234.47;5089297;28;20388;-62
2023/07/24 00:55:45;;;;;;;8.55;4.30;;;;;;;19.83;100.00;99236.31;5088493;28;20725;-62
2023/07/24 00:58:11;;;;;;;10.80;4.95;;;;;;;19.79;100.00;99237.53;5089057;28;20040;-62
2023/07/24 01:00:40;;;;;;;9.65;4.25;;;;;;;19.78;100.00;99235.84;5088456;28;20020;-61
2023/07/24 01:03:07;;;;;;;10.50;4.68;;;;;;;19.76;100.00;99232.41;5079812;28;20033;-62
2023/07/24 01:05:32;;;;;;;8.57;4.03;;;;;;;19.72;100.00;99228.22;5087628;28;20599;-62
2023/07/24 01:07:58;;;;;;;8.85;4.55;;;;;;;19.65;100.00;99229.75;5087809;28;20016;-62
2023/07/24 01:10:23;;;;;;;10.50;4.50;;;;;;;19.62;100.00;99230.84;5088448;28;20020;-62
2023/07/24 01:13:00;;;;;;;8.30;4.25;;;;;;;19.60;100.00;99229.25;5087642;28;20479;-62
2023/07/24 01:15:39;;;;;;;8.90;4.15;;;;;;;19.59;100.00;99230.22;5087556;28;20028;-62
2023/07/24 01:18:15;;;;;;;8.55;3.88;;;;;;;19.59;100.00;99230.22;5087913;28;20016;-62
2023/07/24 01:20:50;;;;;;;8.55;4.22;;;;;;;19.56;100.00;99236.75;5087280;28;20055;-62
2023/07/24 01:23:40;;;;;;;10.98;5.30;;;;;;;19.56;100.00;99230.47;5086351;28;20034;-62
2023/07/24 01:26:06;;;;;;;11.43;5.35;;;;;;;19.55;100.00;99239.56;5071244;28;20059;-63
2023/07/24 01:28:32;;;;;;;9.40;5.15;;;;;;;19.51;100.00;99228.16;5082597;28;20051;-62
2023/07/24 01:30:57;;;;;;;9.55;4.30;;;;;;;19.47;100.00;99223.16;5086205;28;20822;-62
2023/07/24 01:33:24;;;;;;;11.98;4.28;;;;;;;19.42;100.00;99218.09;5086876;28;20471;-62
2023/07/24 01:35:53;;;;;;;10.05;4.55;;;;;;;19.41;100.00;99207.44;5083606;28;20472;-62
2023/07/24 01:38:20;;;;;;;9.23;4.60;;;;;;;19.40;100.00;99209.31;5087941;28;20043;-62
2023/07/24 01:40:45;;;;;;;9.95;4.40;;;;;;;19.37;100.00;99198.75;5087915;28;20059;-63
2023/07/24 01:43:11;;;;;;;8.75;4.20;;;;;;;19.40;100.00;99192.25;5088367;28;20558;-62
2023/07/24 01:45:36;;;;;;;10.52;4.22;;;;;;;19.39;100.00;99198.63;5088563;28;20019;-62
2023/07/24 01:48:03;;;;;;;9.13;4.32;;;;;;;19.39;100.00;99190.53;5087227;28;20034;-62
2023/07/24 01:50:29;;;;;;;9.43;5.03;;;;;;;19.41;100.00;99197.53;5088536;28;20107;-62
2023/07/24 01:52:54;;;;;;;8.82;4.50;;;;;;;19.41;100.00;99196.66;5087784;28;20115;-63
2023/07/24 01:55:20;;;;;;;10.63;4.63;;;;;;;19.45;100.00;99200.84;5087361;28;20078;-62
2023/07/24 01:57:45;;;;;;;11.05;5.57;;;;;;;19.48;100.00;99204.13;5086671;28;20038;-62
2023/07/24 02:00:11;;;;;;;9.50;5.00;;;;;;;19.51;100.00;99195.78;5087289;28;20039;-63
2023/07/24 02:02:36;;;;;;;9.05;4.25;;;;;;;19.53;100.00;99182.19;5086395;28;20460;-62
2023/07/24 02:05:02;;;;;;;9.43;4.43;;;;;;;19.53;100.00;99176.78;5087478;28;20024;-63
2023/07/24 02:07:27;;;;;;;8.52;4.55;;;;;;;19.55;100.00;99172.13;5086569;28;20044;-63
2023/07/24 02:09:52;;;;;;;9.35;4.50;;;;;;;19.59;100.00;99170.88;5087921;28;20032;-63
2023/07/24 02:12:18;;;;;;;10.45;4.60;;;;;;;19.62;100.00;99181.41;5087852;28;20069;-62
2023/07/24 02:14:43;;;;;;;9.35;4.63;;;;;;;19.63;100.00;99172.34;5087128;28;20115;-63
2023/07/24 02:17:08;;;;;;;10.10;4.60;;;;;;;19.64;100.00;99174.03;5086382;28;20027;-63
2023/07/24 02:19:35;;;;;;;8.90;4.40;;;;;;;19.62;100.00;99163.38;5086403;28;20468;-63
2023/07/24 02:22:00;;;;;;;11.10;5.72;;;;;;;19.63;100.00;99169.63;5087766;28;20020;-62
2023/07/24 02:24:26;;;;;;;8.10;4.00;;;;;;;19.65;100.00;99175.78;5090149;28;20027;-63
2023/07/24 02:26:51;;;;;;;8.63;4.68;;;;;;;19.69;100.00;99171.81;5088434;28;20055;-62
2023/07/24 02:29:17;;;;;;;10.77;4.45;;;;;;;19.69;100.00;99166.44;5088949;28;20114;-62
2023/07/24 02:31:42;;;;;;;7.85;3.72;;;;;;;19.69;100.00;99174.53;5088308;28;20039;-62
2023/07/24 02:34:08;;;;;;;8.02;3.72;;;;;;;19.67;100.00;99174.66;5089462;28;20032;-62
2023/07/24 02:36:33;;;;;;;11.13;4.00;;;;;;;19.66;100.00;99166.69;5090721;28;20069;-62
2023/07/24 02:38:58;;;;;;;8.48;3.70;;;;;;;19.63;100.00;99153.47;5090707;28;20140;-63
2023/07/24 02:41:24;;;;;;;10.00;4.13;;;;;;;19.63;100.00;99164.25;5090325;28;20024;-63
2023/07/24 02:43:49;;;;;;;9.70;4.03;;;;;;;19.59;100.00;99160.06;5091326;28;20384;-63
2023/07/24 02:46:15;;;;;;;7.45;3.72;;;;;;;19.57;100.00;99145.88;5091343;28;20032;-63
2023/07/24 02:48:40;;;;;;;7.88;3.80;;;;;;;19.54;100.00;99132.63;5091687;28;20139;-62
2023/07/24 02:51:05;;;;;;;9.98;4.60;;;;;;;19.58;100.00;99137.66;5091531;28;20044;-63
2023/07/24 02:53:31;;;;;;;9.20;4.43;;;;;;;19.59;100.00;99128.56;5090211;28;20023;-62
2023/07/24 02:55:56;;;;;;;13.38;5.55;;;;;;;19.63;100.00;99123.78;5091530;28;20028;-62
2023/07/24 02:58:22;;;;;;;12.50;4.70;;;;;;;19.64;100.00;99128.16;5091121;28;20024;-63
2023/07/24 03:00:47;;;;;;;8.88;4.22;;;;;;;19.63;100.00;99134.56;5091631;28;20032;-63
2023/07/24 03:03:12;;;;;;;10.07;4.43;;;;;;;19.63;100.00;99115.69;5091169;28;20020;-62
2023/07/24 03:05:38;;;;;;;8.27;4.03;;;;;;;19.64;100.00;99122.78;5091396;28;20051;-63
2023/07/24 03:08:03;;;;;;;11.00;3.80;;;;;;;19.61;100.00;99128.44;5089867;28;20043;-63
2023/07/24 03:10:29;;;;;;;9.95;4.45;;;;;;;19.56;100.00;99117.16;5087886;28;20040;-63
2023/07/24 03:12:54;;;;;;;10.30;4.55;;;;;;;19.54;100.00;99124.53;5089998;28;20020;-63
2023/07/24 03:15:20;;;;;;;8.32;4.10;;;;;;;19.54;100.00;99129.91;5088696;28;20024;-63
2023/07/24 03:17:45;;;;;;;9.27;4.63;;;;;;;19.57;100.00;99129.69;5089326;28;20058;-63
2023/07/24 03:20:17;;;;;;;9.38;4.68;;;;;;;19.66;100.00;99123.50;5089026;28;20024;-63
2023/07/24 03:22:43;;;;;;;9.10;4.95;;;;;;;19.63;100.00;99129.16;5088066;28;20113;-63
2023/07/24 03:25:09;;;;;;;12.82;4.93;;;;;;;19.67;100.00;99146.81;5085692;28;20028;-63
2023/07/24 03:27:34;;;;;;;11.77;4.63;;;;;;;19.75;100.00;99149.75;5087504;28;20032;-63
2023/07/24 03:30:00;;;;;;;18.05;5.22;;;;;;;19.80;100.00;99152.03;5089565;28;20142;-63
2023/07/24 03:32:26;;;;;;;9.60;4.68;;;;;;;19.79;100.00;99145.78;5081634;28;20492;-63
2023/07/24 03:34:51;;;;;;;9.35;4.57;;;;;;;19.85;100.00;99153.34;5090835;28;20039;-63
2023/07/24 03:37:17;;;;;;;10.00;5.10;;;;;;;19.84;100.00;99148.97;5089266;28;20051;-63
2023/07/24 03:39:42;;;;;;;12.75;4.90;;;;;;;19.84;100.00;99148.97;5072585;28;20392;-63
2023/07/24 03:42:12;;;;;;;10.95;4.47;;;;;;;19.79;100.00;99148.47;5070660;28;20744;-63
2023/07/24 03:44:38;;;;;;;9.02;4.53;;;;;;;19.77;100.00;99147.75;5082434;28;20069;-63
2023/07/24 03:47:04;;;;;;;9.73;4.22;;;;;;;19.76;100.00;99148.75;5090065;28;20036;-63
2023/07/24 03:49:29;;;;;;;11.35;4.50;;;;;;;19.78;100.00;99148.63;5090924;28;20089;-63
2023/07/24 03:51:54;;;;;;;11.13;5.15;;;;;;;19.77;100.00;99146.91;5087442;28;20463;-63
2023/07/24 03:54:20;;;;;;;12.15;5.75;;;;;;;19.79;100.00;99140.38;5089257;28;20131;-63
2023/07/24 03:56:45;;;;;;;13.60;5.50;;;;;;;19.80;100.00;99139.41;5089939;28;20075;-63
2023/07/24 03:59:11;;;;;;;11.63;5.38;;;;;;;19.79;100.00;99131.41;5090051;28;20031;-63
2023/07/24 04:01:36;;;;;;;12.00;4.95;;;;;;;19.80;100.00;99130.47;5088660;28;20960;-63
2023/07/24 04:04:02;;;;;;;11.88;5.25;;;;;;;19.78;100.00;99127.88;5088660;28;20498;-63
2023/07/24 04:06:27;;;;;;;11.00;4.55;;;;;;;19.79;100.00;99132.28;5087956;28;20071;-63
2023/07/24 04:08:52;;;;;;;12.70;5.30;;;;;;;19.78;100.00;99144.09;5087997;28;20503;-63
2023/07/24 04:11:18;;;;;;;11.30;5.07;;;;;;;19.73;100.00;99140.03;5087240;28;20051;-63
2023/07/24 04:13:43;;;;;;;8.90;4.05;;;;;;;19.73;100.00;99126.56;5073176;28;20471;-63
2023/07/24 04:16:09;;;;;;;11.23;4.75;;;;;;;19.75;100.00;99119.19;5066348;28;20032;-63
2023/07/24 04:18:34;;;;;;;13.35;5.47;;;;;;;19.78;100.00;99125.19;5077357;28;20024;-63
2023/07/24 04:20:59;;;;;;;9.15;4.28;;;;;;;19.81;100.00;99133.03;5086861;28;20433;-63
2023/07/24 04:23:25;;;;;;;8.75;4.70;;;;;;;19.80;100.00;99130.47;5087031;28;20024;-63
2023/07/24 04:25:50;;;;;;;9.45;4.68;;;;;;;19.82;100.00;99117.69;5087745;28;20340;-63
2023/07/24 04:28:16;;;;;;;11.07;4.95;;;;;;;19.82;100.00;99102.34;5088999;28;20388;-63
2023/07/24 04:30:41;;;;;;;9.75;4.95;;;;;;;19.82;100.00;99099.63;5085959;28;20070;-63
2023/07/24 04:33:06;;;;;;;11.88;4.60;;;;;;;19.80;100.00;99107.03;5068824;28;20144;-63
2023/07/24 04:35:32;;;;;;;12.63;5.35;;;;;;;19.79;100.00;99099.03;5067909;28;20065;-63
2023/07/24 04:37:57;;;;;;;10.38;5.30;;;;;;;19.79;100.00;99101.75;5068975;28;20036;-63
2023/07/24 04:40:24;;;;;;;11.77;5.00;;;;;;;19.73;100.00;99111.22;5084943;28;20031;-63
2023/07/24 04:42:49;;;;;;;10.18;4.28;;;;;;;19.72;100.00;99112.19;5087923;28;20020;-63
2023/07/24 04:45:14;;;;;;;13.73;5.50;;;;;;;19.79;100.00;99121.50;5088005;28;20035;-63
2023/07/24 04:47:40;;;;;;;11.10;5.10;;;;;;;19.86;100.00;99119.13;5087773;28;20030;-63
2023/07/24 04:50:06;;;;;;;15.00;5.13;;;;;;;19.89;100.00;99129.66;5088115;28;20127;-62
2023/07/24 04:52:31;;;;;;;10.95;5.53;;;;;;;19.94;100.00;99133.69;5087504;28;20672;-63
2023/07/24 04:54:57;;;;;;;11.55;5.43;;;;;;;19.99;100.00;99138.69;5087223;28;20364;-63
2023/07/24 04:57:22;;;;;;;11.63;5.60;;;;;;;19.97;100.00;99128.03;5088840;28;20449;-63
2023/07/24 04:59:48;;;;;;;9.88;4.53;;;;;;;20.01;100.00;99131.34;5088455;28;20139;-63
2023/07/24 05:02:13;;;;;;;12.75;5.15;;;;;;;20.02;100.00;99119.53;5085392;28;20039;-63
2023/07/24 05:04:38;;;;;;;11.93;5.40;;;;;;;20.04;100.00;99134.63;5086601;28;20031;-63
2023/07/24 05:07:04;;;;;;;9.73;4.65;;;;;;;20.03;100.00;99142.88;5052002;28;20044;-63
2023/07/24 05:09:29;;;;;;;8.65;4.40;;;;;;;19.99;100.00;99149.50;5052435;28;20040;-63
2023/07/24 05:11:55;;;;;;;9.73;4.63;;;;;;;19.97;100.00;99165.84;5046347;28;20039;-63
2023/07/24 05:14:20;;;;;;;9.63;4.28;;;;;;;19.98;100.00;99172.97;5055243;28;20028;-63
2023/07/24 05:16:45;;;;;;;9.70;5.18;;;;;;;20.04;100.00;99177.84;5065732;28;20124;-63
2023/07/24 05:19:11;;;;;;;11.27;5.13;;;;;;;20.02;100.00;99185.19;5051624;28;20029;-63
2023/07/24 05:21:36;;;;;;;9.55;4.43;;;;;;;20.08;100.00;99173.88;5066562;28;20043;-63
2023/07/24 05:24:02;;;;;;;14.30;4.75;;;;;;;20.13;100.00;99168.94;5066654;28;20021;-63
2023/07/24 05:26:27;;;;;;;8.43;4.35;;;;;;;20.15;100.00;99158.91;5051849;28;20349;-63
2023/07/24 05:28:52;;;;;;;10.13;4.88;;;;;;;20.21;100.00;99158.41;5047686;28;20025;-63
2023/07/24 05:31:18;;;;;;;10.23;4.75;;;;;;;20.27;100.00;99157.00;5056309;28;20035;-63
2023/07/24 05:33:44;;;;;;;13.02;5.00;;;;;;;20.26;100.00;99155.31;5057723;28;20020;-63
2023/07/24 05:36:09;;;;;;;13.38;5.32;;;;;;;20.29;100.00;99149.63;5067463;28;20036;-63
2023/07/24 05:38:34;;;;;;;12.27;4.45;;;;;;;20.32;100.00;99150.22;5067540;28;20025;-63
2023/07/24 05:41:02;;;;;;;10.77;5.43;;;;;;;20.32;100.00;99150.22;5068347;28;20028;-63
2023/07/24 05:43:28;;;;;;;9.52;4.90;;;;;;;20.33;100.00;99156.50;5067879;28;20035;-63
2023/07/24 05:45:56;;;;;;;10.63;4.35;;;;;;;20.28;100.00;99153.34;5068961;28;20455;-63
2023/07/24 05:48:21;;;;;;;8.80;4.68;;;;;;;20.29;98.52;99149.63;5067430;28;20032;-63
2023/07/24 05:50:47;;;;;;;13.73;4.75;;;;;;;20.33;97.71;99151.94;5067958;28;20036;-63
2023/07/24 05:53:13;;;;;;;10.88;4.95;;;;;;;20.39;98.39;99150.56;5067753;28;20440;-62
2023/07/24 05:55:38;;;;;;;10.27;4.85;;;;;;;20.40;97.86;99145.00;5067345;28;20038;-63
2023/07/24 05:58:04;;;;;;;10.48;4.30;;;;;;;20.41;96.92;99138.63;5070462;28;20040;-63
2023/07/24 06:00:29;;;;;;;10.98;4.72;;;;;;;20.41;96.74;99144.00;5066952;28;20098;-63
2023/07/24 06:02:55;;;;;;;11.77;4.97;;;;;;;20.39;95.79;99140.63;5068898;28;20024;-63
2023/07/24 06:05:20;;;;;;;10.90;4.88;;;;;;;20.40;95.27;99136.91;5051799;28;20457;-63
2023/07/24 06:07:48;;;;;;;11.73;5.35;;;;;;;20.47;95.37;99154.31;5087697;28;20097;-63
2023/07/24 06:10:14;;;;;;;10.32;4.50;;;;;;;20.50;95.42;99154.03;5071802;28;20558;-63
2023/07/24 06:12:40;;;;;;;13.75;5.35;;;;;;;20.55;95.75;99151.78;5089118;28;20042;-63
2023/07/24 06:15:06;;;;;;;9.20;5.10;;;;;;;20.57;95.74;99152.53;5087522;28;20123;-63
2023/07/24 06:17:32;;;;;;;12.30;4.80;;;;;;;20.59;95.49;99158.63;5074300;28;20527;-63
2023/07/24 06:19:57;;;;;;;10.35;5.20;;;;;;;20.63;95.78;99154.69;5091909;28;20055;-63
2023/07/24 06:22:23;;;;;;;11.05;4.65;;;;;;;20.73;95.43;99155.59;5092226;28;20359;-63
2023/07/24 06:24:49;;;;;;;11.40;5.43;;;;;;;20.82;95.34;99138.56;5091165;28;20544;-63
2023/07/24 06:27:15;;;;;;;11.10;5.55;;;;;;;21.00;95.16;99136.13;5082216;28;20029;-63
2023/07/24 06:29:40;;;;;;;12.00;5.20;;;;;;;21.15;94.96;99142.88;5075315;28;20055;-63
2023/07/24 06:32:07;;;;;;;10.85;5.05;;;;;;;21.25;93.82;99142.91;5090109;28;20037;-63
2023/07/24 06:34:32;;;;;;;11.65;4.85;;;;;;;21.35;94.20;99152.72;5072427;28;20113;-63
2023/07/24 06:36:58;;;;;;;11.25;5.53;;;;;;;21.42;93.58;99142.22;5071219;28;20579;-63
2023/07/24 06:39:23;;;;;;;10.45;4.82;;;;;;;21.50;93.49;99145.94;5079078;28;20609;-63
2023/07/24 06:41:50;;;;;;;10.52;5.15;;;;;;;21.52;91.92;99145.78;5092204;28;20235;-63
2023/07/24 06:44:16;;;;;;;11.45;4.63;;;;;;;21.57;91.34;99155.22;5090719;28;20115;-63
2023/07/24 06:46:41;;;;;;;8.63;4.47;;;;;;;21.60;91.32;99159.47;5077332;28;20108;-63
2023/07/24 06:49:07;;;;;;;13.30;4.68;;;;;;;21.56;90.78;99160.78;5071723;28;20047;-64
2023/07/24 06:51:32;;;;;;;10.93;5.18;;;;;;;21.63;91.56;99164.63;5079633;28;20084;-64
2023/07/24 06:53:57;;;;;;;12.80;4.97;;;;;;;21.60;91.10;99173.88;5090716;28;20020;-64
2023/07/24 06:56:23;;;;;;;10.90;4.70;;;;;;;21.59;90.43;99165.91;5090448;28;20103;-63
2023/07/24 06:58:48;;;;;;;10.10;4.47;;;;;;;21.59;91.20;99160.47;5089624;28;20028;-64
2023/07/24 07:01:13;;;;;;;9.60;4.53;;;;;;;21.63;91.53;99183.59;5089877;28;20726;-63
2023/07/24 07:03:39;;;;;;;9.55;4.75;;;;;;;21.65;92.27;99192.41;5085941;28;20024;-63
2023/07/24 07:06:06;;;;;;;10.98;4.78;;;;;;;21.67;92.93;99196.69;5069764;28;20045;-63
2023/07/24 07:08:31;;;;;;;10.95;5.03;;;;;;;21.61;93.43;99193.69;5084843;28;20032;-62
2023/07/24 07:10:58;;;;;;;8.65;4.60;;;;;;;21.58;94.45;99202.09;5079246;28;20016;-63
2023/07/24 07:13:24;;;;;;;11.95;4.45;;;;;;;21.54;95.74;99200.66;5071898;28;20107;-63
2023/07/24 07:15:49;;;;;;;10.35;3.92;;;;;;;21.46;97.43;99208.59;5085834;28;20436;-63
2023/07/24 07:18:15;;;;;;;11.05;4.78;;;;;;;21.39;99.24;99218.25;5070706;28;20028;-63
2023/07/24 07:20:51;;;;;;;9.77;4.75;;;;;;;21.28;100.00;99213.81;5076402;28;20104;-63
2023/07/24 07:23:17;;;;;;;10.52;4.65;;;;;;;21.19;100.00;99211.03;5070474;28;20438;-63
2023/07/24 07:25:46;;;;;;;11.20;4.82;;;;;;;21.19;100.00;99221.88;5072530;28;20062;-63
2023/07/24 07:28:15;;;;;;;9.45;4.55;;;;;;;21.10;100.00;99207.34;5080123;28;20033;-63
2023/07/24 07:30:41;;;;;;;9.35;4.78;;;;;;;21.06;100.00;99216.69;5070054;28;20032;-63
2023/07/24 07:33:07;;;;;;;11.82;5.38;;;;;;;21.04;100.00;99202.44;5073669;28;20032;-63
2023/07/24 07:35:33;;;;;;;10.63;5.40;;;;;;;21.09;100.00;99221.00;5090207;28;20028;-63
2023/07/24 07:37:59;;;;;;;12.68;4.72;;;;;;;21.12;100.00;99207.19;5072229;28;20116;-63
2023/07/24 07:40:26;;;;;;;10.57;4.40;;;;;;;21.02;100.00;99190.06;5088468;28;20403;-64
2023/07/24 07:42:55;;;;;;;10.02;4.63;;;;;;;21.05;100.00;99192.50;5072649;28;20033;-63
2023/07/24 07:45:21;;;;;;;12.73;5.25;;;;;;;21.04;100.00;99185.38;5072860;28;20060;-63
2023/07/24 07:47:47;;;;;;;9.30;4.55;;;;;;;21.25;100.00;99200.53;5087874;28;20043;-64
2023/07/24 07:50:12;;;;;;;10.63;5.32;;;;;;;21.28;100.00;99203.00;5076933;28;20492;-64
2023/07/24 07:52:38;;;;;;;11.85;5.05;;;;;;;21.37;100.00;99194.03;5072133;28;20081;-64
2023/07/24 07:55:06;;;;;;;10.10;5.47;;;;;;;21.47;100.00;99194.06;5086706;28;20035;-63
2023/07/24 07:57:35;;;;;;;11.82;4.97;;;;;;;21.46;100.00;99192.38;5087733;28;20042;-64
2023/07/24 08:00:02;;;;;;;10.57;5.35;;;;;;;21.50;100.00;99185.69;5081352;28;20466;-63
2023/07/24 08:02:28;;;;;;;11.05;4.60;;;;;;;21.57;100.00;99160.63;5086721;28;20036;-63
2023/07/24 08:04:53;;;;;;;11.10;5.43;;;;;;;21.63;100.00;99148.41;5085978;28;20035;-64
2023/07/24 08:07:18;;;;;;;9.52;4.47;;;;;;;21.65;100.00;99122.03;5078967;28;20051;-64
2023/07/24 08:09:46;;;;;;;7.22;4.28;;;;;;;21.77;100.00;99132.63;5089115;28;20367;-63
2023/07/24 08:12:12;;;;;;;9.43;4.40;;;;;;;21.86;100.00;99128.22;5071816;28;20029;-65
2023/07/24 08:14:37;;;;;;;10.43;5.55;;;;;;;22.16;100.00;99133.47;5088942;28;20030;-64
2023/07/24 08:17:03;;;;;;;9.73;5.03;;;;;;;22.43;100.00;99133.59;5089466;28;20422;-64
2023/07/24 08:19:29;;;;;;;8.63;5.13;;;;;;;22.77;100.00;99140.22;5088316;28;20495;-64
2023/07/24 08:21:54;;;;;;;11.02;4.63;;;;;;;22.93;100.00;99140.44;5078449;28;20393;-65
2023/07/24 08:24:20;;;;;;;8.82;5.15;;;;;;;22.97;100.00;99141.88;5069017;28;20040;-64
2023/07/24 08:26:45;;;;;;;10.60;4.95;;;;;;;23.08;100.00;99138.97;5068956;28;20020;-64
2023/07/24 08:29:10;;;;;;;9.18;4.25;;;;;;;23.21;100.00;99123.19;5086292;28;20051;-64
2023/07/24 08:31:36;;;;;;;9.30;4.22;;;;;;;23.40;99.04;99120.41;5089159;28;20120;-64
2023/07/24 08:34:01;;;;;;;11.57;4.47;;;;;;;23.56;97.69;99113.47;5076989;28;20021;-64
2023/07/24 08:36:27;;;;;;;11.38;4.45;;;;;;;23.78;96.95;99111.13;5068749;28;20373;-64
2023/07/24 08:38:52;;;;;;;8.10;3.75;;;;;;;24.16;96.12;99120.84;5074721;28;20020;-64
2023/07/24 08:41:17;;;;;;;8.50;4.28;;;;;;;24.66;93.17;99116.47;5088750;28;20043;-64
2023/07/24 08:43:43;;;;;;;8.95;4.35;;;;;;;25.26;89.75;99120.91;5088456;28;20070;-64
2023/07/24 08:46:09;;;;;;;9.70;4.10;;;;;;;25.83;87.78;99128.25;5086149;28;20035;-64
2023/07/24 08:48:40;;;;;;;7.97;3.92;;;;;;;26.39;85.58;99130.19;5086565;28;20028;-64
2023/07/24 08:51:14;;;;;;;7.53;3.67;;;;;;;26.61;81.03;99150.47;5084955;28;20728;-64
2023/07/24 08:53:42;;;;;;;8.30;4.00;;;;;;;26.73;78.44;99160.91;5086221;28;20106;-64
2023/07/24 08:56:09;;;;;;;8.07;4.10;;;;;;;26.52;79.01;99157.81;5084879;28;20028;-64
2023/07/24 08:58:36;;;;;;;8.95;3.58;;;;;;;26.19;78.18;99144.34;5085267;28;20676;-64
2023/07/24 09:01:03;;;;;;;9.93;3.38;;;;;;;25.90;80.67;99150.22;5086658;28;20030;-64
2023/07/24 09:03:30;;;;;;;7.65;3.88;;;;;;;25.72;83.37;99155.81;5086196;28;20039;-64
2023/07/24 09:05:56;;;;;;;9.50;3.55;;;;;;;25.55;82.77;99164.94;5087427;28;20050;-64
2023/07/24 09:08:32;;;;;;;7.80;3.10;;;;;;;25.37;84.06;99174.25;5085837;28;20356;-64
2023/07/24 09:11:02;;;;;;;9.30;3.75;;;;;;;25.14;85.46;99156.75;5069193;28;20032;-65
2023/07/24 09:13:28;;;;;;;9.70;3.65;;;;;;;24.86;85.47;99164.22;5077580;28;20024;-64
2023/07/24 09:15:55;;;;;;;8.85;3.63;;;;;;;24.65;87.16;99161.84;5086163;28;20522;-64
2023/07/24 09:18:21;;;;;;;10.45;3.85;;;;;;;24.57;88.26;99156.38;5087701;28;20055;-64
2023/07/24 09:20:47;;;;;;;8.73;4.10;;;;;;;24.48;89.29;99151.03;5087922;28;20036;-64
2023/07/24 09:23:13;;;;;;;9.18;3.80;;;;;;;24.43;89.08;99145.22;5087169;28;20343;-65
2023/07/24 09:25:42;;;;;;;10.18;3.90;;;;;;;24.30;88.81;99139.34;5086854;28;20042;-65
2023/07/24 09:28:17;;;;;;;11.25;4.78;;;;;;;24.22;89.13;99136.53;5069784;28;20103;-65
2023/07/24 09:30:52;;;;;;;8.48;3.65;;;;;;;24.12;90.52;99158.34;5086505;28;20042;-65
2023/07/24 09:33:18;;;;;;;9.38;3.90;;;;;;;23.95;91.81;99166.47;5087221;28;20024;-65
2023/07/24 09:35:43;;;;;;;9.85;3.78;;;;;;;23.81;93.01;99169.72;5086107;28;20467;-65
2023/07/24 09:38:10;;;;;;;9.32;3.63;;;;;;;23.67;94.36;99183.81;5086282;28;20028;-64
2023/07/24 09:40:41;;;;;;;7.78;3.50;;;;;;;23.53;95.61;99170.75;5085973;28;20023;-64
2023/07/24 09:43:20;;;;;;;8.63;3.80;;;;;;;23.34;96.92;99161.72;5064989;28;20583;-65
2023/07/24 09:45:48;;;;;;;7.50;3.95;;;;;;;23.20;98.49;99158.59;5073694;28;20032;-65
2023/07/24 09:48:15;;;;;;;9.35;4.05;;;;;;;23.14;99.70;99165.50;5084773;28;20032;-65
2023/07/24 09:50:42;;;;;;;10.88;4.95;;;;;;;23.09;100.00;99162.38;5083588;28;20713;-64
2023/07/24 09:53:24;;;;;;;8.50;4.55;;;;;;;22.95;100.00;99164.69;5083852;28;20028;-64
2023/07/24 09:55:56;;;;;;;6.85;3.55;;;;;;;22.87;100.00;99173.59;5082231;28;20028;-64
2023/07/24 09:58:24;;;;;;;9.93;4.60;;;;;;;22.80;100.00;99168.91;5085255;28;20020;-64
2023/07/24 10:00:50;;;;;;;10.77;5.00;;;;;;;22.81;100.00;99187.75;5084733;28;20773;-64
2023/07/24 10:03:17;;;;;;;10.43;5.15;;;;;;;22.75;100.00;99201.88;5085923;28;20173;-63
2023/07/24 10:05:47;;;;;;;7.78;3.97;;;;;;;22.64;100.00;99202.06;5086806;28;20360;-64
2023/07/24 10:08:19;;;;;;;9.52;4.32;;;;;;;22.50;100.00;99199.78;5087544;28;20028;-64
2023/07/24 10:10:45;;;;;;;10.45;5.00;;;;;;;22.40;100.00;99200.75;5083985;28;20369;-64
2023/07/24 10:13:14;;;;;;;8.00;4.30;;;;;;;22.32;100.00;99187.94;5068946;28;20040;-64
2023/07/24 10:15:41;;;;;;;7.80;4.22;;;;;;;22.32;100.00;99181.66;5086464;28;20344;-64
2023/07/24 10:18:08;;;;;;;9.93;4.13;;;;;;;22.04;100.00;99177.97;5087616;28;20020;-64
2023/07/24 10:20:40;;;;;;;7.28;4.07;;;;;;;22.08;100.00;99173.97;5087828;28;20488;-64
2023/07/24 10:23:09;;;;;;;7.00;2.83;;;;;;;21.81;100.00;99171.09;5085375;28;20028;-64
2023/07/24 10:25:36;;;;;;;7.15;4.18;;;;;;;21.78;100.00;99161.41;5086630;28;20024;-64
2023/07/24 10:28:10;;;;;;;11.40;4.80;;;;;;;21.69;100.00;99148.69;5072693;28;20028;-65
2023/07/24 10:30:56;;;;;;;7.40;3.28;;;;;;;21.56;100.00;99149.94;5063785;28;20442;-63
2023/07/24 10:33:21;;;;;;;6.82;3.35;;;;;;;21.55;100.00;99146.38;5067447;28;20508;-63
2023/07/24 10:35:50;;;;;;;8.63;3.85;;;;;;;21.56;100.00;99139.13;5071008;28;20036;-62
2023/07/24 10:38:17;;;;;;;10.43;3.83;;;;;;;21.57;100.00;99152.50;5073023;28;20048;-63
2023/07/24 10:40:44;;;;;;;8.75;3.88;;;;;;;21.67;100.00;99144.41;5065815;28;20731;-62
2023/07/24 10:43:12;;;;;;;8.23;4.35;;;;;;;21.60;100.00;99135.13;5075253;28;20070;-62
2023/07/24 10:45:52;;;;;;;9.50;3.85;;;;;;;21.51;100.00;99108.91;5084617;28;20757;-62
2023/07/24 10:48:19;;;;;;;7.35;3.63;;;;;;;21.58;100.00;99093.84;5081266;28;20067;-61
2023/07/24 10:50:49;;;;;;;8.38;4.35;;;;;;;21.50;100.00;99074.75;5085109;28;20484;-61
2023/07/24 10:53:16;;;;;;;8.23;4.10;;;;;;;21.39;100.00;99061.31;5075928;28;20115;-60
2023/07/24 10:55:47;;;;;;;10.38;3.75;;;;;;;21.52;100.00;99088.97;5082452;28;20016;-60
2023/07/24 10:58:13;;;;;;;9.77;3.83;;;;;;;21.58;100.00;99093.84;5083621;28;20040;-60
2023/07/24 11:00:40;;;;;;;7.75;4.00;;;;;;;21.59;100.00;99100.94;5078002;28;20032;-59
2023/07/24 11:03:09;;;;;;;8.05;3.80;;;;;;;21.70;100.00;99104.38;5090455;28;20337;-60
2023/07/24 11:05:34;;;;;;;8.85;4.05;;;;;;;21.89;100.00;99106.28;5080487;28;20033;-60
2023/07/24 11:08:00;;;;;;;7.93;4.63;;;;;;;22.01;100.00;99107.81;5070508;28;20028;-60
2023/07/24 11:10:26;;;;;;;9.32;3.85;;;;;;;22.25;100.00;99097.38;5080888;28;20396;-60
2023/07/24 11:12:51;;;;;;;8.75;3.92;;;;;;;22.49;100.00;99111.31;5090588;28;20516;-60
2023/07/24 11:15:24;;;;;;;8.55;4.20;;;;;;;22.60;100.00;99119.28;5090613;28;20016;-60
2023/07/24 11:17:49;;;;;;;7.90;4.27;;;;;;;22.59;100.00;99127.56;5087360;28;20028;-60
2023/07/24 11:20:17;;;;;;;8.88;4.05;;;;;;;22.61;100.00;99140.00;5090095;28;20028;-60
2023/07/24 11:22:43;;;;;;;10.75;4.40;;;;;;;22.61;100.00;99142.69;5075966;28;20031;-60